NK55 weather

Public forecast

Using degrees Fahrenheit for public forecast. Weather courtesy of forecast.io.

Closest aviation weather report (METAR) to Onondaga County Sheriff's Department Heliport

Closest report is Syracuse Hancock International Airport, 8.1 nm (15.0 km) E. Retrieved 2020/08/10 08:09 UTC (5 minutes ago):

KSYR 100809Z 25003KT 10SM SCT028 BKN031 OVC042 24/18 A3003 RMK AO2 T02390183

Closest aviation forecast (TAF) to Onondaga County Sheriff's Department Heliport

Closest forecast is Syracuse Hancock International Airport, 8.1 nm (15.0 km) E. Retrieved 2020/08/10 06:39 UTC (2 hours ago):

TAF KSYR 100536Z 1006/1106 25004KT P6SM BKN050 FM100800 VRB03KT P6SM SCT030 FM101400 VRB04KT P6SM SCT150